CDT,Max TemperatureF,Mean TemperatureF,Min TemperatureF,Max Dew PointF,MeanDew PointF,Min DewpointF,Max Humidity, Mean Humidity, Min Humidity, Max Sea Level PressureIn, Mean Sea Level PressureIn, Min Sea Level PressureIn, Max VisibilityMiles, Mean VisibilityMiles, Min VisibilityMiles, Max Wind SpeedMPH, Mean Wind SpeedMPH, Max Gust SpeedMPH,PrecipitationIn, CloudCover, Events, WindDirDegrees
2012-10-1,69,59,49,52,48,43,77,60,42,29.83,29.77,29.74,10,10,10,20,8,26,0.00,0,,6
2012-10-2,73,60,46,54,47,41,86,63,40,29.93,29.87,29.81,,,,14,4,17,0.00,0,,322
2012-10-3,69,62,55,57,54,53,93,75,57,30.09,30.00,29.92,10,10,10,9,4,13,0.00,0,,174
2012-10-4,78,64,50,56,53,49,93,67,40,30.20,30.15,30.09,10,10,7,13,4,17,0.00,1,,194
2012-10-5,67,53,39,54,45,36,93,78,63,30.22,30.13,30.08,10,7,2,22,9,32,0.73,7,Rain-Thunderstorm,18
2012-10-6,51,44,36,36,34,30,89,68,46,30.28,30.25,30.21,10,10,8,14,6,22,0.02,4,Rain,4
2012-10-7,55,44,32,40,34,30,89,65,41,30.30,30.25,30.19,10,10,10,12,3,22,0.00,2,,340
2012-10-8,57,47,36,38,36,34,92,68,43,30.26,30.18,30.11,10,10,10,13,5,18,0.00,0,,213
2012-10-9,64,52,40,50,42,37,92,68,44,30.10,30.04,29.95,10,10,9,17,6,21,0.00,3,,189
2012-10-10,61,50,39,54,40,30,92,62,32,30.29,30.18,30.04,10,10,6,20,5,28,0.01,3,Rain,335
2012-10-11,56,48,40,48,40,34,89,75,61,30.28,30.22,30.17,10,10,10,10,4,15,T,6,Rain,152
2012-10-12,58,55,52,54,52,48,93,87,80,30.32,30.24,30.18,10,7,0,17,6,22,0.52,7,Fog-Rain-Thunderstorm,85
2012-10-13,73,65,56,63,59,54,100,87,73,30.20,30.07,29.86,10,5,0,21,10,30,0.32,7,Fog-Rain,170
2012-10-14,71,61,51,64,58,45,93,72,51,30.02,29.83,29.71,10,9,1,22,11,32,0.57,6,Rain-Thunderstorm,215
2012-10-15,75,61,46,53,47,42,86,64,41,30.06,29.99,29.94,10,10,10,12,3,15,0.00,0,,264
2012-10-16,77,63,48,50,46,42,93,62,31,29.93,29.81,29.70,10,10,10,18,8,25,0.00,0,,206
2012-10-17,66,58,49,61,55,46,93,83,72,29.68,29.58,29.45,10,8,0,22,8,33,0.38,6,Fog-Rain-Thunderstorm,203
2012-10-18,62,52,42,44,34,27,93,61,29,29.78,29.73,29.68,10,10,10,24,10,36,0.00,1,,251
2012-10-19,54,49,44,40,37,32,83,67,50,29.86,29.76,29.67,10,10,10,22,9,31,0.00,6,,275
2012-10-20,69,54,38,43,40,37,92,63,33,29.93,29.88,29.85,10,10,10,10,4,24,0.00,0,,204
2012-10-21,76,62,47,64,56,43,93,79,64,29.96,29.93,29.88,10,10,10,15,6,22,0.00,2,,156
2012-10-22,79,71,62,63,61,58,87,71,54,30.02,29.96,29.92,10,10,10,18,10,25,T,4,,182
2012-10-23,80,70,60,59,57,54,97,77,57,30.01,29.96,29.89,10,9,2,17,8,31,0.18,3,Rain-Thunderstorm,177
2012-10-24,80,70,60,62,60,57,90,72,54,30.01,29.95,29.90,10,10,10,17,9,23,0.00,0,,183
2012-10-25,78,61,44,63,53,39,93,81,56,30.13,29.94,29.82,10,9,0,23,11,30,0.41,6,Fog-Rain-Thunderstorm,262
2012-10-26,52,45,37,37,30,27,76,61,41,30.31,30.25,30.14,10,10,10,17,12,26,0.00,3,,8
2012-10-27,54,43,31,29,26,24,79,58,34,30.32,30.25,30.19,10,10,10,16,10,22,0.00,0,,6
2012-10-28,54,43,31,29,26,24,79,57,33,30.28,30.24,30.20,10,10,10,16,7,21,0.00,0,,356
2012-10-29,57,44,31,31,25,20,79,54,26,30.34,30.25,30.13,10,10,10,12,4,18,0.00,1,,351
2012-10-30,61,46,30,31,27,23,75,48,30,30.12,30.03,29.94,10,10,10,13,5,16,0.00,1,,331
2012-10-31,63,51,39,34,30,25,60,46,31,30.03,29.99,29.97,10,10,8,16,6,23,0.00,0,,325